Time;durP1;ratioP1;P1;durP2;ratioP2;P2;SDS_P1;SDS_P2;PMS_P1;PMS_P2;Temp;Humidity;BMP_temperature;BMP_pressure;BME280_temperature;BME280_humidity;BME280_pressure;Samples;Min_cycle;Max_cycle;Signal;HPM_P1;HPM_P2
2021/05/13 00:00:53;;;;;;;1.83;0.90;;;21.50;51.40;;;;;;10418157;28;20225;-9
2021/05/13 00:06:15;;;;;;;0.70;0.43;;;21.50;51.40;;;;;;10416876;28;20206;-10
2021/05/13 00:11:38;;;;;;;1.17;0.53;;;21.50;51.30;;;;;;10416955;28;20214;-10
2021/05/13 00:17:01;;;;;;;1.20;0.73;;;21.40;51.50;;;;;;10416279;28;20228;-10
2021/05/13 00:22:24;;;;;;;1.20;0.53;;;21.40;51.60;;;;;;10415807;28;20772;-9
2021/05/13 00:27:46;;;;;;;1.30;0.67;;;21.40;51.30;;;;;;10415397;28;20250;-10
2021/05/13 00:33:09;;;;;;;0.60;0.50;;;21.40;51.30;;;;;;10415651;28;20218;-10
2021/05/13 00:38:31;;;;;;;1.10;0.63;;;21.30;51.80;;;;;;10415108;28;20625;-10
2021/05/13 00:43:53;;;;;;;0.87;0.50;;;21.60;51.00;;;;;;10414458;28;20217;-10
2021/05/13 00:49:17;;;;;;;1.60;0.60;;;21.50;51.00;;;;;;10416006;28;20193;-11
2021/05/13 00:54:39;;;;;;;1.00;0.60;;;21.50;51.00;;;;;;10414456;28;20210;-10
2021/05/13 01:00:07;;;;;;;1.37;0.70;;;21.60;50.90;;;;;;10414406;28;20217;-10
2021/05/13 01:05:31;;;;;;;1.83;0.83;;;21.50;51.20;;;;;;10414414;28;20229;-10
2021/05/13 01:10:52;;;;;;;1.00;0.80;;;21.50;51.10;;;;;;10413353;28;20275;-10
2021/05/13 01:16:24;;;;;;;0.80;0.53;;;21.50;50.80;;;;;;10414070;28;20229;-9
2021/05/13 01:21:47;;;;;;;1.23;0.53;;;21.40;51.20;;;;;;10413362;28;20241;-10
2021/05/13 01:27:08;;;;;;;0.70;0.50;;;21.50;51.60;;;;;;10400569;28;20194;-10
2021/05/13 01:32:30;;;;;;;1.63;0.80;;;21.50;51.20;;;;;;10414874;28;20217;-10
2021/05/13 01:38:06;;;;;;;1.50;0.70;;;21.50;51.10;;;;;;10413664;28;20586;-10
2021/05/13 01:43:29;;;;;;;0.80;0.70;;;21.50;51.30;;;;;;10412831;28;20213;-10
2021/05/13 01:48:51;;;;;;;2.10;0.77;;;21.50;51.00;;;;;;10413416;28;20663;-10
2021/05/13 01:54:13;;;;;;;1.57;0.97;;;21.50;50.90;;;;;;10412871;28;20216;-9
2021/05/13 01:59:35;;;;;;;1.70;0.80;;;21.50;50.80;;;;;;10413215;28;20214;-10
2021/05/13 02:04:57;;;;;;;1.57;0.80;;;21.70;50.90;;;;;;10410867;28;20210;-10
2021/05/13 02:10:19;;;;;;;1.00;0.60;;;21.60;50.70;;;;;;10412743;28;20218;-10
2021/05/13 02:15:41;;;;;;;1.20;0.67;;;21.60;51.00;;;;;;10412375;28;20713;-10
2021/05/13 02:21:03;;;;;;;1.13;0.60;;;21.70;50.80;;;;;;10437620;22;20230;-11
2021/05/13 02:26:25;;;;;;;0.83;0.60;;;21.70;50.70;;;;;;10432619;28;20204;-12
2021/05/13 02:31:47;;;;;;;1.53;0.90;;;21.70;50.80;;;;;;10471565;28;20766;-12
2021/05/13 02:37:09;;;;;;;1.27;0.87;;;21.50;51.00;;;;;;10472518;28;20228;-15
2021/05/13 02:42:31;;;;;;;1.00;0.70;;;21.40;51.10;;;;;;10482929;28;20222;-11
2021/05/13 02:47:53;;;;;;;1.17;0.70;;;21.50;51.10;;;;;;10471067;28;20668;-14
2021/05/13 02:53:14;;;;;;;1.33;0.70;;;21.50;50.70;;;;;;10492443;28;20220;-15
2021/05/13 02:58:37;;;;;;;0.97;0.70;;;21.60;50.70;;;;;;10492145;28;20212;-12
2021/05/13 03:03:58;;;;;;;0.70;0.67;;;21.60;50.40;;;;;;10452483;28;20217;-11
2021/05/13 03:09:20;;;;;;;1.37;0.80;;;21.60;50.70;;;;;;10491394;28;20199;-12
2021/05/13 03:14:44;;;;;;;2.07;1.10;;;21.60;50.70;;;;;;10493617;28;20196;-14
2021/05/13 03:20:07;;;;;;;1.20;0.73;;;21.60;50.80;;;;;;10493016;28;20800;-11
2021/05/13 03:25:30;;;;;;;1.83;1.07;;;21.50;50.70;;;;;;10484770;28;20192;-12
2021/05/13 03:30:52;;;;;;;1.17;0.87;;;21.50;50.80;;;;;;10492484;28;20600;-14
2021/05/13 03:36:14;;;;;;;1.13;0.80;;;21.40;51.00;;;;;;10502242;28;20265;-14
2021/05/13 03:41:37;;;;;;;1.73;1.03;;;21.50;50.90;;;;;;10498087;28;20231;-12
2021/05/13 03:46:59;;;;;;;1.30;0.70;;;21.50;50.70;;;;;;10501373;28;20184;-16
2021/05/13 03:52:21;;;;;;;1.60;0.83;;;21.60;50.60;;;;;;10501238;28;20215;-13
2021/05/13 03:57:43;;;;;;;2.07;1.00;;;21.60;50.80;;;;;;10500674;28;20680;-14
2021/05/13 04:03:05;;;;;;;2.17;1.13;;;21.70;50.50;;;;;;10500226;28;20244;-15
2021/05/13 04:08:27;;;;;;;3.33;1.20;;;21.60;50.60;;;;;;10500103;28;20615;-12
2021/05/13 04:13:50;;;;;;;1.63;1.07;;;21.50;50.80;;;;;;10495213;28;20220;-16
2021/05/13 04:19:13;;;;;;;2.00;1.10;;;21.60;50.70;;;;;;10499670;28;20208;-14
2021/05/13 04:24:34;;;;;;;2.67;1.10;;;21.60;50.50;;;;;;10499075;28;20224;-12
2021/05/13 04:29:56;;;;;;;1.60;0.80;;;21.70;50.60;;;;;;10500239;28;20220;-14
2021/05/13 04:35:18;;;;;;;2.00;1.00;;;21.60;50.50;;;;;;10497277;28;20220;-11
2021/05/13 04:40:41;;;;;;;1.13;0.87;;;21.70;50.50;;;;;;10499006;28;20243;-15
2021/05/13 04:46:04;;;;;;;1.13;1.00;;;21.60;50.70;;;;;;10497245;28;20184;-13
2021/05/13 04:51:28;;;;;;;1.00;0.90;;;21.70;50.50;;;;;;10497552;28;20640;-13
2021/05/13 04:56:50;;;;;;;1.93;1.00;;;21.70;50.30;;;;;;10496862;28;20216;-12
2021/05/13 05:02:11;;;;;;;2.70;1.00;;;21.60;50.50;;;;;;10498178;28;20212;-11
2021/05/13 05:07:34;;;;;;;2.20;1.20;;;21.60;50.60;;;;;;10456323;28;20189;-11
2021/05/13 05:12:55;;;;;;;1.73;0.70;;;21.40;50.90;;;;;;10484444;28;20209;-13
2021/05/13 05:18:18;;;;;;;2.53;1.50;;;21.40;50.90;;;;;;10497703;28;20220;-15
2021/05/13 05:23:40;;;;;;;2.23;1.10;;;21.50;50.90;;;;;;10498048;28;20231;-14
2021/05/13 05:29:02;;;;;;;1.80;1.03;;;21.50;50.80;;;;;;10497357;28;20573;-13
2021/05/13 05:34:24;;;;;;;2.63;1.10;;;21.60;50.80;;;;;;10493760;28;20851;-14
2021/05/13 05:39:46;;;;;;;2.43;1.20;;;21.60;50.70;;;;;;10496494;28;20188;-11
2021/05/13 05:45:09;;;;;;;1.80;1.03;;;21.50;51.00;;;;;;10493312;28;20204;-12
2021/05/13 05:50:33;;;;;;;1.80;1.17;;;21.50;50.70;;;;;;10497211;28;20216;-13
2021/05/13 05:55:55;;;;;;;2.30;1.17;;;21.50;51.00;;;;;;10495068;28;20223;-14
2021/05/13 06:01:17;;;;;;;2.53;1.30;;;21.40;50.80;;;;;;10496065;28;20216;-14
2021/05/13 06:06:38;;;;;;;2.90;1.30;;;21.50;50.80;;;;;;10494837;28;20199;-12
2021/05/13 06:12:01;;;;;;;2.23;1.13;;;21.40;50.80;;;;;;10495346;28;20228;-14
2021/05/13 06:17:22;;;;;;;2.77;1.17;;;21.50;50.80;;;;;;10494198;28;20216;-12
2021/05/13 06:22:44;;;;;;;3.07;1.43;;;21.50;50.70;;;;;;10495150;28;20228;-12
2021/05/13 06:28:07;;;;;;;2.90;1.60;;;21.70;50.40;;;;;;10488130;28;20196;-11
2021/05/13 06:33:29;;;;;;;6.30;1.70;;;21.50;50.80;;;;;;10500182;28;20256;-12
2021/05/13 06:38:51;;;;;;;15.07;2.67;;;21.50;50.50;;;;;;10492158;28;20766;-15
2021/05/13 06:44:13;;;;;;;30.27;3.53;;;21.50;50.50;;;;;;10489894;28;20224;-12
2021/05/13 06:49:35;;;;;;;33.77;4.57;;;21.70;50.40;;;;;;10492960;28;20199;-12
2021/05/13 06:54:56;;;;;;;44.70;5.73;;;21.60;50.50;;;;;;10493298;28;20244;-12
2021/05/13 07:00:21;;;;;;;71.27;7.47;;;21.60;50.30;;;;;;10482092;28;20601;-13
2021/05/13 07:05:43;;;;;;;44.63;6.43;;;21.50;50.40;;;;;;10450091;28;20193;-14
2021/05/13 07:11:04;;;;;;;44.77;5.97;;;21.50;50.80;;;;;;10450535;28;20209;-15
2021/05/13 07:16:28;;;;;;;28.87;3.77;;;21.40;50.80;;;;;;10451364;28;20257;-13
2021/05/13 07:57:29;;;;;;;107.50;12.97;;;20.20;54.30;;;;;;10567148;22;20569;-14
2021/05/13 08:02:51;;;;;;;82.57;10.20;;;20.70;53.10;;;;;;10445694;28;20219;-14
2021/05/13 08:08:13;;;;;;;83.37;10.03;;;20.60;53.20;;;;;;10456336;28;20694;-12
2021/05/13 08:13:35;;;;;;;76.23;10.23;;;20.80;52.70;;;;;;10467843;28;20211;-10
2021/05/13 08:18:57;;;;;;;70.27;9.23;;;21.10;52.00;;;;;;10467936;28;20217;-13
2021/05/13 08:24:18;;;;;;;62.87;8.87;;;21.10;52.10;;;;;;10446611;28;20596;-12
2021/05/13 08:29:41;;;;;;;67.70;8.93;;;21.20;51.60;;;;;;10475808;28;20217;-12
2021/05/13 08:35:03;;;;;;;50.53;7.90;;;21.20;51.60;;;;;;10469194;28;20199;-12
2021/05/13 08:40:25;;;;;;;56.30;8.27;;;21.20;51.50;;;;;;10478947;28;20244;-13
2021/05/13 08:45:47;;;;;;;63.80;9.33;;;21.30;51.10;;;;;;10465171;28;20221;-14
2021/05/13 08:51:09;;;;;;;86.73;10.80;;;21.60;50.80;;;;;;10455435;28;20209;-12
2021/05/13 08:56:31;;;;;;;77.83;10.83;;;21.50;51.00;;;;;;10427468;28;20190;-12
2021/05/13 09:01:58;;;;;;;80.87;11.03;;;21.50;51.00;;;;;;10416466;28;20670;-12
2021/05/13 09:07:22;;;;;;;79.37;10.90;;;21.40;50.90;;;;;;10415047;28;20221;-12
2021/05/13 09:12:46;;;;;;;93.23;11.33;;;21.50;51.10;;;;;;10426837;28;20277;-13
2021/05/13 09:18:14;;;;;;;133.47;15.00;;;21.50;51.20;;;;;;10401560;28;20216;-12
2021/05/13 09:23:37;;;;;;;145.97;15.47;;;21.50;51.30;;;;;;10420876;28;20209;-12
2021/05/13 09:29:09;;;;;;;105.43;15.13;;;21.40;51.10;;;;;;10414613;28;20562;-13
2021/05/13 09:34:32;;;;;;;73.73;11.13;;;21.50;51.20;;;;;;10442365;28;20629;-13
2021/05/13 09:39:53;;;;;;;84.33;11.50;;;21.50;51.10;;;;;;10450755;28;20228;-13
2021/05/13 09:45:15;;;;;;;67.77;10.87;;;21.40;50.90;;;;;;10425187;28;20236;-11
2021/05/13 09:50:38;;;;;;;80.50;11.80;;;21.40;51.40;;;;;;10414158;28;20213;-12
2021/05/13 09:56:23;;;;;;;64.47;10.63;;;21.40;51.40;;;;;;10387534;28;20705;-12
2021/05/13 10:01:44;;;;;;;61.27;9.57;;;21.50;51.10;;;;;;10391405;28;20649;-13
2021/05/13 10:07:07;;;;;;;59.20;9.70;;;21.40;51.40;;;;;;10437781;28;20229;-12
2021/05/13 10:12:30;;;;;;;63.70;9.93;;;21.40;51.50;;;;;;10412755;28;20574;-14
2021/05/13 10:17:55;;;;;;;51.47;8.87;;;21.30;51.30;;;;;;10400599;28;20213;-14
2021/05/13 10:23:17;;;;;;;51.10;8.43;;;21.30;51.30;;;;;;10440042;28;20808;-12
2021/05/13 10:28:40;;;;;;;49.07;8.20;;;21.40;51.30;;;;;;10442400;28;20218;-13
2021/05/13 10:34:02;;;;;;;37.33;7.80;;;21.40;51.20;;;;;;10429980;28;20205;-13
2021/05/13 10:39:24;;;;;;;44.57;7.37;;;21.40;51.30;;;;;;10442976;28;20733;-11
2021/05/13 10:44:46;;;;;;;38.67;7.13;;;21.40;51.30;;;;;;10441839;28;20213;-12
2021/05/13 10:50:08;;;;;;;29.60;7.27;;;21.30;51.20;;;;;;10421619;28;20217;-12
2021/05/13 10:55:37;;;;;;;30.13;6.43;;;21.30;51.00;;;;;;10437181;28;20201;-12
2021/05/13 11:01:21;;;;;;;36.43;5.77;;;21.40;51.60;;;;;;10443614;28;20300;-11
2021/05/13 11:06:43;;;;;;;30.97;5.87;;;21.50;50.80;;;;;;10448181;28;20250;-12
2021/05/13 11:12:13;;;;;;;24.23;5.23;;;21.50;50.90;;;;;;10435955;28;20727;-13
2021/05/13 11:18:13;;;;;;;31.33;5.87;;;21.40;51.10;;;;;;10422990;28;20633;-13
2021/05/13 11:23:35;;;;;;;23.97;4.80;;;21.60;50.90;;;;;;10411427;28;20241;-14
2021/05/13 11:28:57;;;;;;;28.43;4.63;;;21.40;51.10;;;;;;10410945;28;20701;-14
2021/05/13 11:34:19;;;;;;;17.13;4.57;;;21.30;51.40;;;;;;10410559;28;20205;-12
2021/05/13 11:39:41;;;;;;;16.50;3.70;;;21.40;49.80;;;;;;10410343;28;20221;-12
2021/05/13 11:45:04;;;;;;;21.70;4.27;;;21.30;50.80;;;;;;10430054;28;20228;-11
2021/05/13 11:50:30;;;;;;;17.13;3.80;;;21.30;51.30;;;;;;10437881;28;20701;-13
2021/05/13 11:55:53;;;;;;;14.33;4.00;;;21.20;51.50;;;;;;10438944;28;20186;-12
2021/05/13 12:01:33;;;;;;;19.87;4.20;;;21.40;51.00;;;;;;10405333;28;20700;-13
2021/05/13 12:06:57;;;;;;;15.17;3.40;;;21.40;50.60;;;;;;10422364;28;20247;-12
2021/05/13 12:12:22;;;;;;;9.30;2.70;;;21.40;50.50;;;;;;10364572;28;20570;-15
2021/05/13 12:17:47;;;;;;;12.20;3.00;;;21.30;50.90;;;;;;10405263;28;20315;-13
2021/05/13 12:23:09;;;;;;;10.37;2.87;;;21.40;51.00;;;;;;10406831;28;20633;-12
2021/05/13 12:28:30;;;;;;;10.53;3.10;;;21.40;50.90;;;;;;10406129;28;20701;-12
2021/05/13 12:33:53;;;;;;;10.40;2.50;;;21.40;51.10;;;;;;10381828;28;20252;-12
2021/05/13 12:39:28;;;;;;;9.23;2.53;;;21.50;50.90;;;;;;10393240;28;20229;-12
2021/05/13 12:44:50;;;;;;;8.93;2.30;;;21.70;50.40;;;;;;10416164;28;20209;-12
2021/05/13 12:50:13;;;;;;;7.07;2.13;;;21.40;50.80;;;;;;10424236;28;20340;-12
2021/05/13 12:55:37;;;;;;;7.10;2.23;;;21.40;51.30;;;;;;10414185;28;20678;-12
2021/05/13 13:01:01;;;;;;;8.30;2.20;;;21.40;51.10;;;;;;10413325;28;20300;-13
2021/05/13 13:06:23;;;;;;;7.00;2.23;;;21.40;51.10;;;;;;10415276;28;20213;-14
2021/05/13 13:11:45;;;;;;;6.17;2.10;;;21.50;51.00;;;;;;10415124;28;20264;-12
2021/05/13 13:17:21;;;;;;;4.70;1.93;;;21.50;50.70;;;;;;10414831;28;20263;-12
2021/05/13 13:22:44;;;;;;;6.07;1.70;;;21.40;51.00;;;;;;10415007;28;20193;-11
2021/05/13 13:28:05;;;;;;;4.13;1.63;;;21.50;51.00;;;;;;10414431;28;20225;-12
2021/05/13 13:33:28;;;;;;;4.30;1.50;;;21.60;50.70;;;;;;10414499;28;20206;-13
2021/05/13 13:38:50;;;;;;;6.50;1.80;;;21.50;50.80;;;;;;10414724;28;20590;-12
2021/05/13 13:44:12;;;;;;;4.10;1.97;;;21.40;50.80;;;;;;10412599;28;20213;-15
2021/05/13 13:49:33;;;;;;;5.10;1.60;;;21.50;51.20;;;;;;10411544;28;20220;-12
2021/05/13 13:54:56;;;;;;;2.50;1.50;;;21.60;50.90;;;;;;10402777;28;20666;-12
2021/05/13 14:00:19;;;;;;;4.67;1.70;;;21.70;51.00;;;;;;10411699;28;20221;-11
2021/05/13 14:05:40;;;;;;;3.33;1.47;;;21.60;51.10;;;;;;10411224;28;20216;-12
2021/05/13 14:11:04;;;;;;;7.17;1.27;;;21.60;51.00;;;;;;10410771;28;20217;-14
2021/05/13 14:16:26;;;;;;;4.73;1.50;;;21.70;51.10;;;;;;10412662;28;20201;-12
2021/05/13 14:21:47;;;;;;;2.07;1.23;;;21.50;51.20;;;;;;10413146;28;20198;-12
2021/05/13 14:27:10;;;;;;;6.87;1.50;;;21.60;51.50;;;;;;10411314;28;20213;-13
2021/05/13 14:32:31;;;;;;;4.40;1.53;;;21.60;51.20;;;;;;10520308;22;20231;-10
2021/05/13 14:37:55;;;;;;;4.03;1.30;;;21.60;50.90;;;;;;10450369;28;20197;-12
2021/05/13 14:43:19;;;;;;;8.33;1.30;;;21.40;51.40;;;;;;10451736;28;20701;-11
2021/05/13 14:48:46;;;;;;;3.43;1.17;;;21.40;51.60;;;;;;10446647;28;20243;-10
2021/05/13 14:54:08;;;;;;;4.53;1.57;;;21.50;51.60;;;;;;10447701;28;20277;-10
2021/05/13 14:59:30;;;;;;;5.93;1.37;;;21.60;51.00;;;;;;10448178;28;20201;-12
2021/05/13 15:04:52;;;;;;;3.30;1.40;;;21.50;51.50;;;;;;10447060;28;20213;-10
2021/05/13 15:10:14;;;;;;;3.40;1.10;;;21.60;51.20;;;;;;10447371;28;20200;-11
2021/05/13 15:15:37;;;;;;;2.83;1.20;;;21.60;51.10;;;;;;10446348;28;20217;-11
2021/05/13 15:20:58;;;;;;;3.30;1.20;;;21.60;51.20;;;;;;10450404;28;20204;-11
2021/05/13 15:26:20;;;;;;;5.23;1.13;;;21.60;51.30;;;;;;10450907;28;20789;-13
2021/05/13 15:31:43;;;;;;;10.03;1.27;;;21.50;51.20;;;;;;10451313;28;20197;-10
2021/05/13 15:37:04;;;;;;;3.53;1.07;;;21.50;51.20;;;;;;10451058;28;20193;-10
2021/05/13 15:42:26;;;;;;;10.13;1.77;;;21.50;51.50;;;;;;10449906;28;21614;-11
2021/05/13 15:47:48;;;;;;;6.80;1.40;;;21.40;52.20;;;;;;10417516;28;20690;-14
2021/05/13 15:53:11;;;;;;;6.77;1.60;;;21.40;51.50;;;;;;10444770;28;20609;-12
2021/05/13 15:58:33;;;;;;;4.30;1.30;;;21.50;51.60;;;;;;10444510;28;20203;-11
2021/05/13 16:03:55;;;;;;;3.23;1.37;;;21.50;51.40;;;;;;10443572;28;20239;-11
2021/05/13 16:09:17;;;;;;;7.90;1.50;;;21.50;51.50;;;;;;10452617;28;20201;-14
2021/05/13 16:14:38;;;;;;;4.00;1.13;;;21.40;51.70;;;;;;10452441;28;20712;-11
2021/05/13 16:20:01;;;;;;;3.80;1.33;;;21.50;51.50;;;;;;10452945;28;20209;-11
2021/05/13 16:25:23;;;;;;;3.27;1.20;;;21.40;51.60;;;;;;10451928;28;20264;-12
2021/05/13 16:30:45;;;;;;;3.73;1.10;;;21.50;51.70;;;;;;10453098;28;20197;-11
2021/05/13 16:36:09;;;;;;;4.00;1.27;;;21.60;51.30;;;;;;10452153;28;20221;-12
2021/05/13 16:41:30;;;;;;;2.30;1.20;;;21.60;51.30;;;;;;10452474;28;20193;-10
2021/05/13 16:46:52;;;;;;;3.57;1.20;;;21.60;51.10;;;;;;10452930;28;20270;-10
2021/05/13 16:52:14;;;;;;;3.77;1.20;;;21.60;51.40;;;;;;10456330;28;20208;-13
2021/05/13 16:57:36;;;;;;;3.33;1.30;;;21.60;51.00;;;;;;10456012;28;20192;-13
2021/05/13 17:02:59;;;;;;;5.40;1.20;;;21.50;51.50;;;;;;10456456;28;20217;-12
2021/05/13 17:08:22;;;;;;;6.60;1.50;;;21.50;51.50;;;;;;10456209;28;20204;-12
2021/05/13 17:13:43;;;;;;;6.63;1.20;;;21.50;51.40;;;;;;10455646;28;20212;-11
2021/05/13 17:19:05;;;;;;;6.67;1.30;;;21.60;51.50;;;;;;10450026;28;20585;-14
2021/05/13 17:24:28;;;;;;;6.53;1.20;;;21.50;51.60;;;;;;10449345;28;20217;-11
2021/05/13 17:29:49;;;;;;;12.90;1.40;;;21.50;52.20;;;;;;10449409;28;20750;-11
2021/05/13 17:35:13;;;;;;;15.50;1.30;;;21.50;52.40;;;;;;10449228;28;20220;-10
2021/05/13 17:40:35;;;;;;;8.07;1.60;;;21.50;51.90;;;;;;10449251;28;20736;-13
2021/05/13 17:45:57;;;;;;;7.90;1.50;;;21.50;51.80;;;;;;10448893;28;20229;-13
2021/05/13 17:51:18;;;;;;;4.63;1.60;;;21.50;51.80;;;;;;10449104;28;20204;-11
2021/05/13 17:56:42;;;;;;;6.53;1.40;;;21.50;51.90;;;;;;10446631;28;20206;-12
2021/05/13 18:02:04;;;;;;;7.53;1.77;;;21.40;51.90;;;;;;10448528;28;20224;-13
2021/05/13 18:07:26;;;;;;;4.83;1.60;;;21.50;51.90;;;;;;10411032;28;20275;-14
2021/05/13 18:12:48;;;;;;;2.37;1.30;;;21.50;51.70;;;;;;10446694;28;20228;-11
2021/05/13 18:18:10;;;;;;;8.17;1.50;;;21.60;51.80;;;;;;10452566;28;20569;-10
2021/05/13 18:23:35;;;;;;;9.20;2.20;;;21.60;51.60;;;;;;10452507;28;20767;-11
2021/05/13 18:28:58;;;;;;;9.60;2.23;;;21.50;51.50;;;;;;10452742;28;20196;-9
2021/05/13 18:34:19;;;;;;;6.47;2.10;;;21.60;51.80;;;;;;10452843;28;20235;-11
2021/05/13 18:39:42;;;;;;;3.87;2.13;;;21.50;51.90;;;;;;10452569;28;20193;-11
2021/05/13 18:45:06;;;;;;;4.03;2.07;;;21.50;51.70;;;;;;10451349;28;20284;-11
2021/05/13 18:50:28;;;;;;;6.07;2.67;;;21.70;51.60;;;;;;10452923;28;20286;-10
2021/05/13 18:55:50;;;;;;;3.40;2.63;;;21.60;51.40;;;;;;10406690;28;20644;-10
2021/05/13 19:01:12;;;;;;;7.93;3.27;;;21.50;51.90;;;;;;10406104;28;20205;-12
2021/05/13 19:06:34;;;;;;;5.07;2.90;;;21.60;52.50;;;;;;10405631;28;20225;-11
2021/05/13 19:11:56;;;;;;;5.50;3.10;;;21.70;51.60;;;;;;10406014;28;20205;-10
2021/05/13 19:17:19;;;;;;;4.70;3.03;;;21.70;51.40;;;;;;10405251;28;20230;-8
2021/05/13 19:22:40;;;;;;;5.20;3.13;;;21.60;51.50;;;;;;10410888;28;20268;-11
2021/05/13 19:28:03;;;;;;;4.00;3.20;;;21.70;51.50;;;;;;10410673;28;20189;-10
2021/05/13 19:39:08;;;;;;;4.40;3.10;;;21.40;51.70;;;;;;10409130;28;20251;-10
2021/05/13 19:44:29;;;;;;;3.80;3.10;;;21.30;51.90;;;;;;10419110;28;20252;-13
2021/05/13 19:49:52;;;;;;;4.03;2.77;;;21.50;51.90;;;;;;10445474;28;20197;-9
2021/05/13 19:55:14;;;;;;;4.33;3.40;;;21.60;51.60;;;;;;10443457;28;20217;-9
2021/05/13 20:00:36;;;;;;;4.60;2.63;;;21.60;51.40;;;;;;10449764;28;20598;-10
2021/05/13 20:06:05;;;;;;;3.87;2.80;;;21.60;51.50;;;;;;10449647;28;20279;-11
2021/05/13 20:11:27;;;;;;;3.03;2.50;;;21.60;51.40;;;;;;10450374;28;20198;-9
2021/05/13 20:16:49;;;;;;;3.37;2.80;;;21.40;51.70;;;;;;10410633;28;20193;-10
2021/05/13 20:22:14;;;;;;;4.57;3.13;;;21.50;51.50;;;;;;10450254;28;20636;-12
2021/05/13 20:27:45;;;;;;;6.10;3.23;;;21.60;51.60;;;;;;10463169;28;20226;-10
2021/05/13 20:33:13;;;;;;;3.40;2.87;;;21.70;51.50;;;;;;10492355;28;20627;-12
2021/05/13 20:38:35;;;;;;;4.97;2.47;;;21.60;51.40;;;;;;10492719;22;20593;-12
2021/05/13 20:43:57;;;;;;;3.17;2.50;;;21.60;51.50;;;;;;10476510;28;20269;-12
2021/05/13 20:49:21;;;;;;;3.07;2.60;;;21.70;51.40;;;;;;10518772;28;20278;-15
2021/05/13 21:00:23;;;;;;;2.67;2.43;;;21.60;51.30;;;;;;10532661;28;20718;-12
2021/05/13 21:05:57;;;;;;;3.50;2.60;;;21.40;51.80;;;;;;10541052;28;20222;-14
2021/05/13 21:11:25;;;;;;;2.50;2.30;;;21.50;51.80;;;;;;10517604;28;20184;-12
2021/05/13 21:22:34;;;;;;;4.00;2.20;;;21.30;52.00;;;;;;10498140;28;20572;-14
2021/05/13 21:27:59;;;;;;;2.40;2.20;;;21.30;52.00;;;;;;10524684;28;20299;-14
2021/05/13 21:33:21;;;;;;;3.20;2.40;;;21.30;52.00;;;;;;10506906;28;20200;-12
2021/05/13 21:38:43;;;;;;;3.43;2.40;;;21.40;52.10;;;;;;10497254;28;20250;-12
2021/05/13 21:44:06;;;;;;;3.83;2.40;;;21.20;52.10;;;;;;10508709;28;20587;-13
2021/05/13 21:49:29;;;;;;;2.73;2.20;;;21.30;52.20;;;;;;10506618;28;20212;-12
2021/05/13 21:54:51;;;;;;;3.27;2.10;;;21.30;51.80;;;;;;10529604;28;20209;-13
2021/05/13 22:00:16;;;;;;;2.87;2.33;;;21.40;52.00;;;;;;10532671;28;20856;-14
2021/05/13 22:05:39;;;;;;;2.37;2.03;;;21.40;51.60;;;;;;10534276;28;20211;-12
2021/05/13 22:11:00;;;;;;;2.13;1.90;;;21.20;52.70;;;;;;10538252;28;20191;-12
2021/05/13 22:16:24;;;;;;;2.27;1.70;;;21.20;52.30;;;;;;10534328;28;20211;-13
2021/05/13 22:21:48;;;;;;;2.27;2.03;;;21.30;52.10;;;;;;10537096;28;20195;-13
2021/05/13 22:27:19;;;;;;;2.47;1.80;;;21.20;52.20;;;;;;10537101;28;20276;-13
2021/05/13 22:32:41;;;;;;;2.33;2.13;;;21.20;52.10;;;;;;10536946;28;20683;-13
2021/05/13 22:38:03;;;;;;;2.17;1.70;;;21.20;52.20;;;;;;10536822;28;20712;-12
2021/05/13 22:43:24;;;;;;;2.00;1.70;;;21.10;52.30;;;;;;10534616;28;20678;-12
2021/05/13 22:48:57;;;;;;;1.70;1.60;;;21.20;52.30;;;;;;10494871;28;20216;-11
2021/05/13 22:54:21;;;;;;;3.10;2.00;;;21.30;52.10;;;;;;10551352;28;20187;-12
2021/05/13 22:59:43;;;;;;;2.30;1.53;;;21.30;52.10;;;;;;10577255;28;20264;-12
2021/05/13 23:05:07;;;;;;;2.87;2.23;;;21.20;52.10;;;;;;10577579;28;20211;-13
2021/05/13 23:10:29;;;;;;;2.70;1.80;;;21.30;52.00;;;;;;10579051;28;20218;-12
2021/05/13 23:15:51;;;;;;;2.03;1.80;;;21.20;52.20;;;;;;10576966;28;20191;-13
2021/05/13 23:21:13;;;;;;;1.93;1.73;;;21.20;52.10;;;;;;10577599;28;20256;-11
2021/05/13 23:26:35;;;;;;;2.60;2.10;;;21.30;52.20;;;;;;10576334;28;20237;-12
2021/05/13 23:31:57;;;;;;;1.80;1.70;;;21.10;52.20;;;;;;10577002;28;20198;-12
2021/05/13 23:37:19;;;;;;;2.77;1.67;;;21.10;52.30;;;;;;10576627;28;20219;-13
2021/05/13 23:42:41;;;;;;;1.83;1.70;;;21.10;52.10;;;;;;10550462;28;20198;-12
2021/05/13 23:48:03;;;;;;;1.60;1.50;;;21.10;52.20;;;;;;10534086;28;20226;-14
2021/05/13 23:53:25;;;;;;;2.53;1.80;;;21.30;52.00;;;;;;10533703;28;20671;-13
2021/05/13 23:58:47;;;;;;;1.70;1.53;;;21.30;52.20;;;;;;10533500;28;20219;-12
